Wan Hai 510 — 9VJJ8 — position and weather

sailwx.info

Track history (hours):
 
Tides and Currents Weather Stations Pressure Air Temp Water Temp Dewpoint Dewpoint Depression Visibility Wind Speed Wind Dir Waves Ship Positions

Wan Hai 510

Last reported at 2016-Jun-27 01:14 UTC. Time now 2016-Jun-27 02:22 UTC.
Position N 01°11' E 103°37'.

Length 269 m; draft 11.7 m.

Type: Ship. MMSI: 565741000.

Date/timePositionNaut miles runAvg speedWind from/ knotsBaromVisibWave heightAir tempDewpointWater temp
2016-Jun-27 01:14N 01°11' E 103°37'1013.8
2016-Jun-27 00:32N 01°10' E 103°47'8 7.6
2016-Jun-26 23:32N 01°16' E 103°51'0 0.2
2016-Jun-26 22:32N 01°16' E 103°51'0 0.0
2016-Jun-26 21:20N 01°16' E 103°51'0 0.0
2016-Jun-26 20:32N 01°16' E 103°51'0 0.0
2016-Jun-26 19:32N 01°16' E 103°51'0 0.0
2016-Jun-26 18:32N 01°16' E 103°51'0 0.0
2016-Jun-26 17:32N 01°16' E 103°51'0 0.0
2016-Jun-26 16:32N 01°16' E 103°51'0 0.0
2016-Jun-26 15:32N 01°16' E 103°51'0 0.0
2016-Jun-26 14:32N 01°16' E 103°51'0 0.0
2016-Jun-26 13:32N 01°16' E 103°51'0 0.0
2016-Jun-26 12:32N 01°16' E 103°51'0 0.0
2016-Jun-26 11:32N 01°16' E 103°51'0 0.0
2016-Jun-26 10:32N 01°16' E 103°51'0 0.0
2016-Jun-26 09:33N 01°16' E 103°51'5 5.2
2016-Jun-26 08:33N 01°14' E 103°56'  
2016-Jun-23 04:25N 22°17' E 114°06'1211.2
2016-Jun-23 03:22N 22°22' E 113°55'5 6.1
2016-Jun-23 02:33N 22°26' E 113°53'1 0.7
2016-Jun-23 01:20N 22°27' E 113°54'0 0.0
2016-Jun-22 23:19N 22°27' E 113°54'0 0.0
2016-Jun-22 22:19N 22°27' E 113°54'0 0.0
2016-Jun-22 21:19N 22°27' E 113°54'0 0.0
2016-Jun-22 20:31N 22°27' E 113°54'0 0.0
2016-Jun-22 19:32N 22°27' E 113°54'0 0.0
2016-Jun-22 18:20N 22°27' E 113°54'0 0.0
2016-Jun-22 17:31N 22°27' E 113°54'0 0.0
2016-Jun-22 16:32N 22°27' E 113°54'0 0.0
2016-Jun-22 15:31N 22°27' E 113°54'2 2.2
2016-Jun-22 14:33N 22°25' E 113°53'11 9.7
2016-Jun-22 13:27N 22°21' E 114°04'3 2.4
2016-Jun-22 12:10N 22°20' E 114°08'0 0.0
2016-Jun-22 11:22N 22°20' E 114°08'0 0.0
2016-Jun-22 09:22N 22°20' E 114°08'0 0.0
2016-Jun-22 06:28N 22°20' E 114°08'0 0.0
2016-Jun-22 05:22N 22°20' E 114°08'0 0.0
2016-Jun-22 04:28N 22°20' E 114°08'0 0.0
2016-Jun-22 02:28N 22°20' E 114°08'0 0.0
2016-Jun-22 01:31N 22°20' E 114°08'0 0.1
2016-Jun-21 23:18N 22°20' E 114°07'16 8.0
2016-Jun-21 21:20N 22°08' E 114°18'316 8.7
2016-Jun-20 09:14N 22°32' E 119°59'913.4
2016-Jun-20 08:33N 22°32' E 120°08'1010.2
2016-Jun-20 07:33N 22°33' E 120°19'1 1.1
2016-Jun-20 06:16N 22°35' E 120°18'0 0.0
2016-Jun-20 05:28N 22°35' E 120°18'0 0.0
2016-Jun-20 00:28N 22°35' E 120°18'0 0.0
2016-Jun-19 23:28N 22°35' E 120°18'0 0.1
2016-Jun-19 22:28N 22°35' E 120°18'0 0.1
2016-Jun-19 21:28N 22°35' E 120°18'0 0.0
2016-Jun-19 20:28N 22°35' E 120°18'0 0.1
2016-Jun-19 19:22N 22°35' E 120°18'0 0.0
2016-Jun-19 18:28N 22°35' E 120°18'0 0.0
2016-Jun-19 16:31N 22°35' E 120°18'0 0.0
2016-Jun-19 15:28N 22°35' E 120°18'0 0.1
2016-Jun-19 14:28N 22°35' E 120°18'0 0.1
2016-Jun-19 13:28N 22°35' E 120°18'0 0.0
2016-Jun-19 12:28N 22°35' E 120°18'0 0.0
2016-Jun-19 11:28N 22°35' E 120°18'0 0.0
2016-Jun-19 10:22N 22°35' E 120°18'0 0.0
2016-Jun-19 09:28N 22°35' E 120°18'0 0.0
2016-Jun-19 08:28N 22°35' E 120°18'0 0.0
2016-Jun-19 07:28N 22°35' E 120°18'0 0.1
2016-Jun-19 06:22N 22°35' E 120°18'0 0.1
2016-Jun-19 05:28N 22°35' E 120°18'0 0.1
2016-Jun-19 04:28N 22°35' E 120°18'2 1.6
2016-Jun-19 03:29N 22°33' E 120°18'8 8.4
2016-Jun-19 02:33N 22°29' E 120°11'8 7.7
2016-Jun-19 01:34N 22°24' E 120°06'1312.5
2016-Jun-19 00:30N 22°14' E 119°55'  
Track history (hours):
 
Tides and Currents Weather Stations Pressure Air Temp Water Temp Dewpoint Dewpoint Depression Visibility Wind Speed Wind Dir Waves Ship Positions

Wan Hai 510

Last reported at 2016-Jun-27 01:14 UTC. Time now 2016-Jun-27 02:22 UTC.
Position N 01°11' E 103°37'.

Length 269 m; draft 11.7 m.

Type: Ship. MMSI: 565741000.

Date/timePositionNaut miles runAvg speedWind from/ knotsBaromVisibWave heightAir tempDewpointWater temp
2016-Jun-27 01:14N 01°11' E 103°37'1013.8
2016-Jun-27 00:32N 01°10' E 103°47'8 7.6
2016-Jun-26 23:32N 01°16' E 103°51'0 0.2
2016-Jun-26 22:32N 01°16' E 103°51'0 0.0
2016-Jun-26 21:20N 01°16' E 103°51'0 0.0
2016-Jun-26 20:32N 01°16' E 103°51'0 0.0
2016-Jun-26 19:32N 01°16' E 103°51'0 0.0
2016-Jun-26 18:32N 01°16' E 103°51'0 0.0
2016-Jun-26 17:32N 01°16' E 103°51'0 0.0
2016-Jun-26 16:32N 01°16' E 103°51'0 0.0
2016-Jun-26 15:32N 01°16' E 103°51'0 0.0
2016-Jun-26 14:32N 01°16' E 103°51'0 0.0
2016-Jun-26 13:32N 01°16' E 103°51'0 0.0
2016-Jun-26 12:32N 01°16' E 103°51'0 0.0
2016-Jun-26 11:32N 01°16' E 103°51'0 0.0
2016-Jun-26 10:32N 01°16' E 103°51'0 0.0
2016-Jun-26 09:33N 01°16' E 103°51'5 5.2
2016-Jun-26 08:33N 01°14' E 103°56'  
2016-Jun-23 04:25N 22°17' E 114°06'1211.2
2016-Jun-23 03:22N 22°22' E 113°55'5 6.1
2016-Jun-23 02:33N 22°26' E 113°53'1 0.7
2016-Jun-23 01:20N 22°27' E 113°54'0 0.0
2016-Jun-22 23:19N 22°27' E 113°54'0 0.0
2016-Jun-22 22:19N 22°27' E 113°54'0 0.0
2016-Jun-22 21:19N 22°27' E 113°54'0 0.0
2016-Jun-22 20:31N 22°27' E 113°54'0 0.0
2016-Jun-22 19:32N 22°27' E 113°54'0 0.0
2016-Jun-22 18:20N 22°27' E 113°54'0 0.0
2016-Jun-22 17:31N 22°27' E 113°54'0 0.0
2016-Jun-22 16:32N 22°27' E 113°54'0 0.0
2016-Jun-22 15:31N 22°27' E 113°54'2 2.2
2016-Jun-22 14:33N 22°25' E 113°53'11 9.7
2016-Jun-22 13:27N 22°21' E 114°04'3 2.4
2016-Jun-22 12:10N 22°20' E 114°08'0 0.0
2016-Jun-22 11:22N 22°20' E 114°08'0 0.0
2016-Jun-22 09:22N 22°20' E 114°08'0 0.0
2016-Jun-22 06:28N 22°20' E 114°08'0 0.0
2016-Jun-22 05:22N 22°20' E 114°08'0 0.0
2016-Jun-22 04:28N 22°20' E 114°08'0 0.0
2016-Jun-22 02:28N 22°20' E 114°08'0 0.0
2016-Jun-22 01:31N 22°20' E 114°08'0 0.1
2016-Jun-21 23:18N 22°20' E 114°07'16 8.0
2016-Jun-21 21:20N 22°08' E 114°18'316 8.7
2016-Jun-20 09:14N 22°32' E 119°59'913.4
2016-Jun-20 08:33N 22°32' E 120°08'1010.2
2016-Jun-20 07:33N 22°33' E 120°19'1 1.1
2016-Jun-20 06:16N 22°35' E 120°18'0 0.0
2016-Jun-20 05:28N 22°35' E 120°18'0 0.0
2016-Jun-20 00:28N 22°35' E 120°18'0 0.0
2016-Jun-19 23:28N 22°35' E 120°18'0 0.1
2016-Jun-19 22:28N 22°35' E 120°18'0 0.1
2016-Jun-19 21:28N 22°35' E 120°18'0 0.0
2016-Jun-19 20:28N 22°35' E 120°18'0 0.1
2016-Jun-19 19:22N 22°35' E 120°18'0 0.0
2016-Jun-19 18:28N 22°35' E 120°18'0 0.0
2016-Jun-19 16:31N 22°35' E 120°18'0 0.0
2016-Jun-19 15:28N 22°35' E 120°18'0 0.1
2016-Jun-19 14:28N 22°35' E 120°18'0 0.1
2016-Jun-19 13:28N 22°35' E 120°18'0 0.0
2016-Jun-19 12:28N 22°35' E 120°18'0 0.0
2016-Jun-19 11:28N 22°35' E 120°18'0 0.0
2016-Jun-19 10:22N 22°35' E 120°18'0 0.0
2016-Jun-19 09:28N 22°35' E 120°18'0 0.0
2016-Jun-19 08:28N 22°35' E 120°18'0 0.0
2016-Jun-19 07:28N 22°35' E 120°18'0 0.1
2016-Jun-19 06:22N 22°35' E 120°18'0 0.1
2016-Jun-19 05:28N 22°35' E 120°18'0 0.1
2016-Jun-19 04:28N 22°35' E 120°18'2 1.6
2016-Jun-19 03:29N 22°33' E 120°18'8 8.4
2016-Jun-19 02:33N 22°29' E 120°11'8 7.7
2016-Jun-19 01:34N 22°24' E 120°06'1312.5
2016-Jun-19 00:30N 22°14' E 119°55'  

Dump ship's entire track history